Taylorsport, Kentucky
Current Conditions -  °F | °C
As of 6:52 PM on Friday 31 Oct 2014 (Local Time) from KCVG Reporting Station
Overcast Overcast  
Wind Chill: 33°   Ceiling: 3700
Heat Index: 40°   Visibility: 10mi
Dew Point: 34°   Wind: 13mph
Humidity: 79%   Direction: 310°NW
Pressure: 29.96"   Gusts: NA
Location:  39.0882°N, 84.7043°W
Report Text: KCVG 312252Z 31011KT 10SM FEW030 OVC037 04/01 A2996 RMK AO2 SLP146 T00440011 VISNO 36R $
Loading
Personal Weather Stations






























Interactive Weather Map
Tropical Storm Tracking
New forecast layout! Learn more

10-Day Weather Forecast

Advertisements
Track Severe Weather on mobile